sensor_id;sensor_type;location;lat;lon;timestamp;temperature;humidity
46882;DHT22;44112;38.408;-122.974;2022-10-16T00:01:14;19.00;64.20
46882;DHT22;44112;38.408;-122.974;2022-10-16T00:03:42;18.90;63.90
46882;DHT22;44112;38.408;-122.974;2022-10-16T00:06:10;18.90;64.10
46882;DHT22;44112;38.408;-122.974;2022-10-16T00:08:38;18.90;64.60
46882;DHT22;44112;38.408;-122.974;2022-10-16T00:11:47;18.90;64.40
46882;DHT22;44112;38.408;-122.974;2022-10-16T00:13:57;18.90;64.50
46882;DHT22;44112;38.408;-122.974;2022-10-16T00:16:25;18.90;64.40
46882;DHT22;44112;38.408;-122.974;2022-10-16T00:18:52;18.90;64.10
46882;DHT22;44112;38.408;-122.974;2022-10-16T00:21:24;18.90;64.10
46882;DHT22;44112;38.408;-122.974;2022-10-16T00:23:56;18.90;64.20
46882;DHT22;44112;38.408;-122.974;2022-10-16T00:26:23;19.00;64.20
46882;DHT22;44112;38.408;-122.974;2022-10-16T00:28:50;19.00;64.00
46882;DHT22;44112;38.408;-122.974;2022-10-16T00:31:19;19.00;63.90
46882;DHT22;44112;38.408;-122.974;2022-10-16T00:33:47;19.00;63.80
46882;DHT22;44112;38.408;-122.974;2022-10-16T00:36:15;19.00;63.70
46882;DHT22;44112;38.408;-122.974;2022-10-16T00:38:43;19.00;63.70
46882;DHT22;44112;38.408;-122.974;2022-10-16T00:41:16;18.90;63.60
46882;DHT22;44112;38.408;-122.974;2022-10-16T00:43:52;18.90;63.80
46882;DHT22;44112;38.408;-122.974;2022-10-16T00:49:07;18.90;63.90
46882;DHT22;44112;38.408;-122.974;2022-10-16T00:51:54;18.80;63.90
46882;DHT22;44112;38.408;-122.974;2022-10-16T00:54:29;18.80;63.80
46882;DHT22;44112;38.408;-122.974;2022-10-16T00:56:59;18.90;63.70
46882;DHT22;44112;38.408;-122.974;2022-10-16T00:59:28;18.80;63.50
46882;DHT22;44112;38.408;-122.974;2022-10-16T01:01:58;18.90;63.60
46882;DHT22;44112;38.408;-122.974;2022-10-16T01:04:26;18.90;63.40
46882;DHT22;44112;38.408;-122.974;2022-10-16T01:10:02;18.90;63.30
46882;DHT22;44112;38.408;-122.974;2022-10-16T01:15:12;18.80;63.20
46882;DHT22;44112;38.408;-122.974;2022-10-16T01:17:48;18.90;63.30
46882;DHT22;44112;38.408;-122.974;2022-10-16T01:31:39;18.80;63.00
46882;DHT22;44112;38.408;-122.974;2022-10-16T01:34:18;18.80;63.00
46882;DHT22;44112;38.408;-122.974;2022-10-16T01:37:07;18.80;63.00
46882;DHT22;44112;38.408;-122.974;2022-10-16T01:39:37;18.80;62.90
46882;DHT22;44112;38.408;-122.974;2022-10-16T01:42:09;18.80;62.80
46882;DHT22;44112;38.408;-122.974;2022-10-16T01:44:39;18.80;62.80
46882;DHT22;44112;38.408;-122.974;2022-10-16T01:47:09;18.80;62.90
46882;DHT22;44112;38.408;-122.974;2022-10-16T01:49:38;18.80;62.80
46882;DHT22;44112;38.408;-122.974;2022-10-16T01:52:08;18.70;62.80
46882;DHT22;44112;38.408;-122.974;2022-10-16T01:54:39;18.70;62.90
46882;DHT22;44112;38.408;-122.974;2022-10-16T01:57:08;18.70;62.90
46882;DHT22;44112;38.408;-122.974;2022-10-16T01:59:40;18.70;62.90
46882;DHT22;44112;38.408;-122.974;2022-10-16T02:02:09;18.70;63.10
46882;DHT22;44112;38.408;-122.974;2022-10-16T02:04:47;18.70;63.20
46882;DHT22;44112;38.408;-122.974;2022-10-16T02:07:16;18.70;63.10
46882;DHT22;44112;38.408;-122.974;2022-10-16T02:09:42;18.80;63.10
46882;DHT22;44112;38.408;-122.974;2022-10-16T02:12:24;18.80;63.00
46882;DHT22;44112;38.408;-122.974;2022-10-16T02:14:52;18.80;63.00
46882;DHT22;44112;38.408;-122.974;2022-10-16T02:17:20;18.70;62.90
46882;DHT22;44112;38.408;-122.974;2022-10-16T02:19:50;18.70;63.00
46882;DHT22;44112;38.408;-122.974;2022-10-16T02:22:41;18.70;63.60
46882;DHT22;44112;38.408;-122.974;2022-10-16T02:25:29;18.70;63.00
46882;DHT22;44112;38.408;-122.974;2022-10-16T02:28:08;18.70;63.50
46882;DHT22;44112;38.408;-122.974;2022-10-16T02:33:11;18.70;63.00
46882;DHT22;44112;38.408;-122.974;2022-10-16T02:35:43;18.70;63.10
46882;DHT22;44112;38.408;-122.974;2022-10-16T02:38:12;18.60;63.00
46882;DHT22;44112;38.408;-122.974;2022-10-16T02:40:40;18.70;63.00
46882;DHT22;44112;38.408;-122.974;2022-10-16T02:43:09;18.70;62.80
46882;DHT22;44112;38.408;-122.974;2022-10-16T02:45:36;18.70;62.60
46882;DHT22;44112;38.408;-122.974;2022-10-16T02:48:03;18.70;62.60
46882;DHT22;44112;38.408;-122.974;2022-10-16T02:50:30;18.70;62.60
46882;DHT22;44112;38.408;-122.974;2022-10-16T02:52:57;18.70;62.80
46882;DHT22;44112;38.408;-122.974;2022-10-16T02:55:23;18.70;62.80
46882;DHT22;44112;38.408;-122.974;2022-10-16T02:57:51;18.60;62.70
46882;DHT22;44112;38.408;-122.974;2022-10-16T03:00:18;18.60;62.70
46882;DHT22;44112;38.408;-122.974;2022-10-16T03:02:44;18.60;62.70
46882;DHT22;44112;38.408;-122.974;2022-10-16T03:05:12;18.60;62.80
46882;DHT22;44112;38.408;-122.974;2022-10-16T03:07:40;18.60;62.70
46882;DHT22;44112;38.408;-122.974;2022-10-16T03:10:07;18.60;62.80
46882;DHT22;44112;38.408;-122.974;2022-10-16T03:12:34;18.60;62.70
46882;DHT22;44112;38.408;-122.974;2022-10-16T03:15:02;18.70;62.60
46882;DHT22;44112;38.408;-122.974;2022-10-16T03:17:28;18.70;62.50
46882;DHT22;44112;38.408;-122.974;2022-10-16T03:19:55;18.70;62.40
46882;DHT22;44112;38.408;-122.974;2022-10-16T03:22:22;18.60;62.30
46882;DHT22;44112;38.408;-122.974;2022-10-16T03:24:48;18.60;62.40
46882;DHT22;44112;38.408;-122.974;2022-10-16T03:27:15;18.60;62.50
46882;DHT22;44112;38.408;-122.974;2022-10-16T03:29:42;18.60;62.50
46882;DHT22;44112;38.408;-122.974;2022-10-16T03:32:08;18.60;62.50
46882;DHT22;44112;38.408;-122.974;2022-10-16T03:34:35;18.60;62.50
46882;DHT22;44112;38.408;-122.974;2022-10-16T03:37:01;18.60;62.50
46882;DHT22;44112;38.408;-122.974;2022-10-16T03:39:28;18.60;62.50
46882;DHT22;44112;38.408;-122.974;2022-10-16T03:41:55;18.60;62.50
46882;DHT22;44112;38.408;-122.974;2022-10-16T03:44:21;18.60;62.40
46882;DHT22;44112;38.408;-122.974;2022-10-16T03:46:48;18.60;62.50
46882;DHT22;44112;38.408;-122.974;2022-10-16T03:49:15;18.60;62.40
46882;DHT22;44112;38.408;-122.974;2022-10-16T03:51:42;18.60;62.30
46882;DHT22;44112;38.408;-122.974;2022-10-16T03:54:10;18.60;62.40
46882;DHT22;44112;38.408;-122.974;2022-10-16T03:56:36;18.60;62.40
46882;DHT22;44112;38.408;-122.974;2022-10-16T03:59:03;18.60;62.50
46882;DHT22;44112;38.408;-122.974;2022-10-16T04:01:29;18.60;62.50
46882;DHT22;44112;38.408;-122.974;2022-10-16T04:03:56;18.60;62.60
46882;DHT22;44112;38.408;-122.974;2022-10-16T04:06:23;18.60;62.70
46882;DHT22;44112;38.408;-122.974;2022-10-16T04:08:49;18.60;62.70
46882;DHT22;44112;38.408;-122.974;2022-10-16T04:11:16;18.60;62.70
46882;DHT22;44112;38.408;-122.974;2022-10-16T04:13:42;18.60;62.70
46882;DHT22;44112;38.408;-122.974;2022-10-16T04:16:09;18.50;62.60
46882;DHT22;44112;38.408;-122.974;2022-10-16T04:18:36;18.60;62.60
46882;DHT22;44112;38.408;-122.974;2022-10-16T04:21:06;18.60;62.60
46882;DHT22;44112;38.408;-122.974;2022-10-16T04:23:33;18.60;63.20
46882;DHT22;44112;38.408;-122.974;2022-10-16T04:26:00;18.70;62.60
46882;DHT22;44112;38.408;-122.974;2022-10-16T04:28:28;18.70;62.60
46882;DHT22;44112;38.408;-122.974;2022-10-16T04:30:55;18.60;62.50
46882;DHT22;44112;38.408;-122.974;2022-10-16T04:33:23;18.60;62.70
46882;DHT22;44112;38.408;-122.974;2022-10-16T04:35:56;18.60;62.70
46882;DHT22;44112;38.408;-122.974;2022-10-16T04:38:23;18.60;62.70
46882;DHT22;44112;38.408;-122.974;2022-10-16T04:40:49;18.60;62.80
46882;DHT22;44112;38.408;-122.974;2022-10-16T04:43:16;18.60;63.00
46882;DHT22;44112;38.408;-122.974;2022-10-16T04:45:44;18.60;62.90
46882;DHT22;44112;38.408;-122.974;2022-10-16T04:48:10;18.60;62.90
46882;DHT22;44112;38.408;-122.974;2022-10-16T04:50:38;18.60;62.80
46882;DHT22;44112;38.408;-122.974;2022-10-16T04:53:05;18.60;62.80
46882;DHT22;44112;38.408;-122.974;2022-10-16T04:55:33;18.60;62.80
46882;DHT22;44112;38.408;-122.974;2022-10-16T04:58:00;18.60;62.70
46882;DHT22;44112;38.408;-122.974;2022-10-16T05:00:26;18.70;62.70
46882;DHT22;44112;38.408;-122.974;2022-10-16T05:02:53;18.60;62.60
46882;DHT22;44112;38.408;-122.974;2022-10-16T05:05:20;18.70;62.80
46882;DHT22;44112;38.408;-122.974;2022-10-16T05:07:47;18.60;62.90
46882;DHT22;44112;38.408;-122.974;2022-10-16T05:10:15;18.60;62.90
46882;DHT22;44112;38.408;-122.974;2022-10-16T05:12:42;18.60;63.00
46882;DHT22;44112;38.408;-122.974;2022-10-16T05:15:09;18.60;63.00
46882;DHT22;44112;38.408;-122.974;2022-10-16T05:17:36;18.60;63.00
46882;DHT22;44112;38.408;-122.974;2022-10-16T05:20:03;18.60;63.70
46882;DHT22;44112;38.408;-122.974;2022-10-16T05:22:31;18.60;63.00
46882;DHT22;44112;38.408;-122.974;2022-10-16T05:24:57;18.60;63.00
46882;DHT22;44112;38.408;-122.974;2022-10-16T05:27:24;18.60;63.00
46882;DHT22;44112;38.408;-122.974;2022-10-16T05:29:51;18.60;62.90
46882;DHT22;44112;38.408;-122.974;2022-10-16T05:32:19;18.60;62.90
46882;DHT22;44112;38.408;-122.974;2022-10-16T05:34:45;18.70;62.70
46882;DHT22;44112;38.408;-122.974;2022-10-16T05:37:12;18.60;62.70
46882;DHT22;44112;38.408;-122.974;2022-10-16T05:39:40;18.60;62.80
46882;DHT22;44112;38.408;-122.974;2022-10-16T05:42:07;18.60;62.80
46882;DHT22;44112;38.408;-122.974;2022-10-16T05:44:33;18.60;62.90
46882;DHT22;44112;38.408;-122.974;2022-10-16T05:47:01;18.60;62.80
46882;DHT22;44112;38.408;-122.974;2022-10-16T05:49:27;18.60;62.80
46882;DHT22;44112;38.408;-122.974;2022-10-16T05:51:54;18.60;62.80
46882;DHT22;44112;38.408;-122.974;2022-10-16T05:54:20;18.50;62.80
46882;DHT22;44112;38.408;-122.974;2022-10-16T05:56:47;18.50;63.00
46882;DHT22;44112;38.408;-122.974;2022-10-16T05:59:14;18.60;62.90
46882;DHT22;44112;38.408;-122.974;2022-10-16T06:01:42;18.60;62.90
46882;DHT22;44112;38.408;-122.974;2022-10-16T06:04:09;18.60;62.90
46882;DHT22;44112;38.408;-122.974;2022-10-16T06:06:35;18.60;62.90
46882;DHT22;44112;38.408;-122.974;2022-10-16T06:09:03;18.60;62.80
46882;DHT22;44112;38.408;-122.974;2022-10-16T06:11:31;18.60;62.90
46882;DHT22;44112;38.408;-122.974;2022-10-16T06:14:01;18.50;62.90
46882;DHT22;44112;38.408;-122.974;2022-10-16T06:16:33;18.60;63.00
46882;DHT22;44112;38.408;-122.974;2022-10-16T06:19:00;18.60;63.00
46882;DHT22;44112;38.408;-122.974;2022-10-16T06:21:28;18.60;63.10
46882;DHT22;44112;38.408;-122.974;2022-10-16T06:23:56;18.50;63.00
46882;DHT22;44112;38.408;-122.974;2022-10-16T06:26:26;18.50;62.90
46882;DHT22;44112;38.408;-122.974;2022-10-16T06:28:57;18.60;63.00
46882;DHT22;44112;38.408;-122.974;2022-10-16T06:31:24;18.60;63.20
46882;DHT22;44112;38.408;-122.974;2022-10-16T06:33:54;18.60;63.10
46882;DHT22;44112;38.408;-122.974;2022-10-16T06:36:21;18.50;63.10
46882;DHT22;44112;38.408;-122.974;2022-10-16T06:38:48;18.60;63.00
46882;DHT22;44112;38.408;-122.974;2022-10-16T06:41:19;18.50;62.90
46882;DHT22;44112;38.408;-122.974;2022-10-16T06:43:47;18.60;63.00
46882;DHT22;44112;38.408;-122.974;2022-10-16T06:46:16;18.60;63.00
46882;DHT22;44112;38.408;-122.974;2022-10-16T06:48:43;18.60;63.10
46882;DHT22;44112;38.408;-122.974;2022-10-16T06:51:17;18.60;63.10
46882;DHT22;44112;38.408;-122.974;2022-10-16T06:53:50;18.60;63.10
46882;DHT22;44112;38.408;-122.974;2022-10-16T06:56:20;18.50;63.10
46882;DHT22;44112;38.408;-122.974;2022-10-16T06:58:47;18.50;63.10
46882;DHT22;44112;38.408;-122.974;2022-10-16T07:01:15;18.50;63.20
46882;DHT22;44112;38.408;-122.974;2022-10-16T07:03:43;18.50;63.30
46882;DHT22;44112;38.408;-122.974;2022-10-16T07:06:12;18.60;63.30
46882;DHT22;44112;38.408;-122.974;2022-10-16T07:08:41;18.60;63.30
46882;DHT22;44112;38.408;-122.974;2022-10-16T07:11:10;18.60;63.20
46882;DHT22;44112;38.408;-122.974;2022-10-16T07:13:38;18.60;63.10
46882;DHT22;44112;38.408;-122.974;2022-10-16T07:16:10;18.60;63.10
46882;DHT22;44112;38.408;-122.974;2022-10-16T07:18:37;18.50;63.10
46882;DHT22;44112;38.408;-122.974;2022-10-16T07:21:29;18.50;63.10
46882;DHT22;44112;38.408;-122.974;2022-10-16T07:23:58;18.60;63.20
46882;DHT22;44112;38.408;-122.974;2022-10-16T07:26:26;18.50;63.20
46882;DHT22;44112;38.408;-122.974;2022-10-16T07:28:53;18.50;63.10
46882;DHT22;44112;38.408;-122.974;2022-10-16T07:31:20;18.50;63.20
46882;DHT22;44112;38.408;-122.974;2022-10-16T07:33:47;18.50;63.20
46882;DHT22;44112;38.408;-122.974;2022-10-16T07:36:15;18.60;63.40
46882;DHT22;44112;38.408;-122.974;2022-10-16T07:38:42;18.50;63.30
46882;DHT22;44112;38.408;-122.974;2022-10-16T07:41:11;18.60;63.40
46882;DHT22;44112;38.408;-122.974;2022-10-16T07:43:38;18.50;63.20
46882;DHT22;44112;38.408;-122.974;2022-10-16T07:46:06;18.60;63.20
46882;DHT22;44112;38.408;-122.974;2022-10-16T07:48:33;18.60;63.10
46882;DHT22;44112;38.408;-122.974;2022-10-16T07:51:01;18.60;63.20
46882;DHT22;44112;38.408;-122.974;2022-10-16T07:53:28;18.60;63.30
46882;DHT22;44112;38.408;-122.974;2022-10-16T07:56:03;18.60;63.40
46882;DHT22;44112;38.408;-122.974;2022-10-16T07:58:30;18.50;63.20
46882;DHT22;44112;38.408;-122.974;2022-10-16T08:00:57;18.50;63.10
46882;DHT22;44112;38.408;-122.974;2022-10-16T08:03:24;18.50;63.20
46882;DHT22;44112;38.408;-122.974;2022-10-16T08:05:51;18.50;63.30
46882;DHT22;44112;38.408;-122.974;2022-10-16T08:08:18;18.50;63.20
46882;DHT22;44112;38.408;-122.974;2022-10-16T08:10:45;18.50;63.40
46882;DHT22;44112;38.408;-122.974;2022-10-16T08:13:11;18.60;63.40
46882;DHT22;44112;38.408;-122.974;2022-10-16T08:15:41;18.60;63.30
46882;DHT22;44112;38.408;-122.974;2022-10-16T08:18:09;18.50;63.10
46882;DHT22;44112;38.408;-122.974;2022-10-16T08:20:36;18.60;63.10
46882;DHT22;44112;38.408;-122.974;2022-10-16T08:23:03;18.60;63.10
46882;DHT22;44112;38.408;-122.974;2022-10-16T08:25:29;18.60;63.20
46882;DHT22;44112;38.408;-122.974;2022-10-16T08:27:56;18.50;63.90
46882;DHT22;44112;38.408;-122.974;2022-10-16T08:30:24;18.60;64.90
46882;DHT22;44112;38.408;-122.974;2022-10-16T08:32:50;18.60;64.40
46882;DHT22;44112;38.408;-122.974;2022-10-16T08:35:17;18.70;63.80
46882;DHT22;44112;38.408;-122.974;2022-10-16T08:37:43;18.70;63.70
46882;DHT22;44112;38.408;-122.974;2022-10-16T08:50:45;18.70;63.60
46882;DHT22;44112;38.408;-122.974;2022-10-16T08:53:20;18.70;63.50
46882;DHT22;44112;38.408;-122.974;2022-10-16T08:55:53;18.80;63.60
46882;DHT22;44112;38.408;-122.974;2022-10-16T08:58:27;18.80;63.50
46882;DHT22;44112;38.408;-122.974;2022-10-16T09:00:56;18.70;63.40
46882;DHT22;44112;38.408;-122.974;2022-10-16T09:06:38;18.70;63.20
46882;DHT22;44112;38.408;-122.974;2022-10-16T09:09:33;18.80;63.30
46882;DHT22;44112;38.408;-122.974;2022-10-16T09:15:03;18.70;63.30
46882;DHT22;44112;38.408;-122.974;2022-10-16T09:23:15;18.70;63.50
46882;DHT22;44112;38.408;-122.974;2022-10-16T09:25:44;18.80;63.50
46882;DHT22;44112;38.408;-122.974;2022-10-16T09:28:13;18.80;63.50
46882;DHT22;44112;38.408;-122.974;2022-10-16T09:30:40;18.80;63.40
46882;DHT22;44112;38.408;-122.974;2022-10-16T09:33:10;18.70;63.30
46882;DHT22;44112;38.408;-122.974;2022-10-16T09:35:43;18.70;63.30
46882;DHT22;44112;38.408;-122.974;2022-10-16T09:38:21;18.70;63.20
46882;DHT22;44112;38.408;-122.974;2022-10-16T09:40:48;18.70;63.80
46882;DHT22;44112;38.408;-122.974;2022-10-16T09:44:14;18.70;63.20
46882;DHT22;44112;38.408;-122.974;2022-10-16T09:46:34;18.70;63.20
46882;DHT22;44112;38.408;-122.974;2022-10-16T09:49:16;18.70;63.30
46882;DHT22;44112;38.408;-122.974;2022-10-16T09:51:44;18.70;63.30
46882;DHT22;44112;38.408;-122.974;2022-10-16T09:56:38;18.70;63.20
46882;DHT22;44112;38.408;-122.974;2022-10-16T09:59:13;18.70;63.20
46882;DHT22;44112;38.408;-122.974;2022-10-16T10:01:47;18.70;63.30
46882;DHT22;44112;38.408;-122.974;2022-10-16T10:04:16;18.70;63.20
46882;DHT22;44112;38.408;-122.974;2022-10-16T10:06:53;18.70;63.20
46882;DHT22;44112;38.408;-122.974;2022-10-16T10:09:53;18.70;63.30
46882;DHT22;44112;38.408;-122.974;2022-10-16T10:14:53;18.70;63.20
46882;DHT22;44112;38.408;-122.974;2022-10-16T10:17:23;18.70;63.20
46882;DHT22;44112;38.408;-122.974;2022-10-16T10:20:28;18.70;63.30
46882;DHT22;44112;38.408;-122.974;2022-10-16T10:22:56;18.70;63.20
46882;DHT22;44112;38.408;-122.974;2022-10-16T10:25:44;18.70;63.10
46882;DHT22;44112;38.408;-122.974;2022-10-16T10:28:38;18.70;63.10
46882;DHT22;44112;38.408;-122.974;2022-10-16T10:31:20;18.70;63.00
46882;DHT22;44112;38.408;-122.974;2022-10-16T10:36:41;18.60;63.10
46882;DHT22;44112;38.408;-122.974;2022-10-16T10:45:24;18.60;63.20
46882;DHT22;44112;38.408;-122.974;2022-10-16T10:48:24;18.60;63.20
46882;DHT22;44112;38.408;-122.974;2022-10-16T10:51:13;18.60;63.20
46882;DHT22;44112;38.408;-122.974;2022-10-16T10:56:59;18.60;63.10
46882;DHT22;44112;38.408;-122.974;2022-10-16T11:03:03;18.70;63.00
46882;DHT22;44112;38.408;-122.974;2022-10-16T11:08:11;18.60;63.20
46882;DHT22;44112;38.408;-122.974;2022-10-16T11:10:55;18.60;63.20
46882;DHT22;44112;38.408;-122.974;2022-10-16T11:13:37;18.50;63.20
46882;DHT22;44112;38.408;-122.974;2022-10-16T11:16:16;18.50;63.30
46882;DHT22;44112;38.408;-122.974;2022-10-16T11:21:33;18.50;63.30
46882;DHT22;44112;38.408;-122.974;2022-10-16T11:24:15;18.50;63.30
46882;DHT22;44112;38.408;-122.974;2022-10-16T11:26:44;18.50;63.10
46882;DHT22;44112;38.408;-122.974;2022-10-16T11:29:19;18.60;63.10
46882;DHT22;44112;38.408;-122.974;2022-10-16T11:31:52;18.60;63.00
46882;DHT22;44112;38.408;-122.974;2022-10-16T11:34:31;18.60;62.90
46882;DHT22;44112;38.408;-122.974;2022-10-16T11:39:30;18.60;63.00
46882;DHT22;44112;38.408;-122.974;2022-10-16T11:42:51;18.50;63.10
46882;DHT22;44112;38.408;-122.974;2022-10-16T11:45:18;18.50;63.10
46882;DHT22;44112;38.408;-122.974;2022-10-16T11:48:17;18.50;63.20
46882;DHT22;44112;38.408;-122.974;2022-10-16T11:51:40;18.50;63.30
46882;DHT22;44112;38.408;-122.974;2022-10-16T11:54:02;18.40;63.20
46882;DHT22;44112;38.408;-122.974;2022-10-16T11:56:33;18.40;63.20
46882;DHT22;44112;38.408;-122.974;2022-10-16T11:59:28;18.50;63.30
46882;DHT22;44112;38.408;-122.974;2022-10-16T12:04:49;18.50;62.90
46882;DHT22;44112;38.408;-122.974;2022-10-16T12:07:23;18.60;62.90
46882;DHT22;44112;38.408;-122.974;2022-10-16T12:09:51;18.60;62.80
46882;DHT22;44112;38.408;-122.974;2022-10-16T12:12:26;18.50;62.90
46882;DHT22;44112;38.408;-122.974;2022-10-16T12:15:03;18.50;63.00
46882;DHT22;44112;38.408;-122.974;2022-10-16T12:17:44;18.50;63.10
46882;DHT22;44112;38.408;-122.974;2022-10-16T12:22:55;18.40;63.10
46882;DHT22;44112;38.408;-122.974;2022-10-16T12:25:33;18.40;63.10
46882;DHT22;44112;38.408;-122.974;2022-10-16T12:28:04;18.40;63.20
46882;DHT22;44112;38.408;-122.974;2022-10-16T12:30:36;18.40;63.20
46882;DHT22;44112;38.408;-122.974;2022-10-16T12:33:05;18.40;62.90
46882;DHT22;44112;38.408;-122.974;2022-10-16T12:35:35;18.40;62.80
46882;DHT22;44112;38.408;-122.974;2022-10-16T12:38:25;18.40;62.70
46882;DHT22;44112;38.408;-122.974;2022-10-16T12:43:45;18.50;62.80
46882;DHT22;44112;38.408;-122.974;2022-10-16T12:48:40;18.40;62.90
46882;DHT22;44112;38.408;-122.974;2022-10-16T12:59:35;18.40;63.20
46882;DHT22;44112;38.408;-122.974;2022-10-16T13:10:30;18.40;62.80
46882;DHT22;44112;38.408;-122.974;2022-10-16T13:21:42;18.40;62.80
46882;DHT22;44112;38.408;-122.974;2022-10-16T13:29:43;18.30;62.90
46882;DHT22;44112;38.408;-122.974;2022-10-16T13:32:11;18.30;63.10
46882;DHT22;44112;38.408;-122.974;2022-10-16T13:34:47;18.30;62.90
46882;DHT22;44112;38.408;-122.974;2022-10-16T13:37:19;18.30;62.90
46882;DHT22;44112;38.408;-122.974;2022-10-16T13:39:46;18.40;62.80
46882;DHT22;44112;38.408;-122.974;2022-10-16T13:42:16;18.40;62.70
46882;DHT22;44112;38.408;-122.974;2022-10-16T13:44:51;18.40;62.60
46882;DHT22;44112;38.408;-122.974;2022-10-16T13:47:21;18.40;62.50
46882;DHT22;44112;38.408;-122.974;2022-10-16T13:50:09;18.40;62.50
46882;DHT22;44112;38.408;-122.974;2022-10-16T13:52:38;18.40;62.60
46882;DHT22;44112;38.408;-122.974;2022-10-16T13:55:16;18.30;62.70
46882;DHT22;44112;38.408;-122.974;2022-10-16T13:57:43;18.30;62.80
46882;DHT22;44112;38.408;-122.974;2022-10-16T14:00:24;18.30;62.90
46882;DHT22;44112;38.408;-122.974;2022-10-16T14:02:59;18.30;62.90
46882;DHT22;44112;38.408;-122.974;2022-10-16T14:05:28;18.30;62.90
46882;DHT22;44112;38.408;-122.974;2022-10-16T14:07:55;18.30;62.90
46882;DHT22;44112;38.408;-122.974;2022-10-16T14:10:31;18.30;62.80
46882;DHT22;44112;38.408;-122.974;2022-10-16T14:13:04;18.30;63.50
46882;DHT22;44112;38.408;-122.974;2022-10-16T14:15:33;18.40;62.90
46882;DHT22;44112;38.408;-122.974;2022-10-16T14:18:01;18.40;62.60
46882;DHT22;44112;38.408;-122.974;2022-10-16T14:20:31;18.40;62.60
46882;DHT22;44112;38.408;-122.974;2022-10-16T14:23:04;18.40;62.60
46882;DHT22;44112;38.408;-122.974;2022-10-16T14:25:44;18.30;62.70
46882;DHT22;44112;38.408;-122.974;2022-10-16T14:28:19;18.30;62.90
46882;DHT22;44112;38.408;-122.974;2022-10-16T14:30:53;18.30;63.00
46882;DHT22;44112;38.408;-122.974;2022-10-16T14:33:23;18.30;63.00
46882;DHT22;44112;38.408;-122.974;2022-10-16T14:36:12;18.30;63.00
46882;DHT22;44112;38.408;-122.974;2022-10-16T14:38:47;18.30;63.00
46882;DHT22;44112;38.408;-122.974;2022-10-16T14:41:15;18.30;63.10
46882;DHT22;44112;38.408;-122.974;2022-10-16T14:43:43;18.30;62.90
46882;DHT22;44112;38.408;-122.974;2022-10-16T14:46:14;18.30;62.80
46882;DHT22;44112;38.408;-122.974;2022-10-16T14:48:48;18.30;62.60
46882;DHT22;44112;38.408;-122.974;2022-10-16T14:51:17;18.30;62.50
46882;DHT22;44112;38.408;-122.974;2022-10-16T14:53:44;18.30;62.40
46882;DHT22;44112;38.408;-122.974;2022-10-16T14:56:21;18.30;62.50
46882;DHT22;44112;38.408;-122.974;2022-10-16T14:58:52;18.30;62.70
46882;DHT22;44112;38.408;-122.974;2022-10-16T15:01:20;18.20;62.80
46882;DHT22;44112;38.408;-122.974;2022-10-16T15:03:47;18.20;62.90
46882;DHT22;44112;38.408;-122.974;2022-10-16T15:06:16;18.20;62.90
46882;DHT22;44112;38.408;-122.974;2022-10-16T15:08:44;18.20;63.00
46882;DHT22;44112;38.408;-122.974;2022-10-16T15:11:16;18.20;63.00
46882;DHT22;44112;38.408;-122.974;2022-10-16T15:13:42;18.20;63.00
46882;DHT22;44112;38.408;-122.974;2022-10-16T15:16:14;18.20;62.80
46882;DHT22;44112;38.408;-122.974;2022-10-16T15:18:42;18.30;62.70
46882;DHT22;44112;38.408;-122.974;2022-10-16T15:21:23;18.20;62.50
46882;DHT22;44112;38.408;-122.974;2022-10-16T15:23:52;18.30;62.40
46882;DHT22;44112;38.408;-122.974;2022-10-16T15:26:19;18.30;62.30
46882;DHT22;44112;38.408;-122.974;2022-10-16T15:28:45;18.30;62.40
46882;DHT22;44112;38.408;-122.974;2022-10-16T15:31:12;18.30;62.50
46882;DHT22;44112;38.408;-122.974;2022-10-16T15:33:39;18.20;62.50
46882;DHT22;44112;38.408;-122.974;2022-10-16T15:36:06;18.20;62.80
46882;DHT22;44112;38.408;-122.974;2022-10-16T15:38:34;18.20;62.80
46882;DHT22;44112;38.408;-122.974;2022-10-16T15:41:00;18.20;62.80
46882;DHT22;44112;38.408;-122.974;2022-10-16T15:43:28;18.20;62.90
46882;DHT22;44112;38.408;-122.974;2022-10-16T15:48:28;18.20;62.90
46882;DHT22;44112;38.408;-122.974;2022-10-16T15:50:55;18.20;62.60
46882;DHT22;44112;38.408;-122.974;2022-10-16T15:53:22;18.20;62.50
46882;DHT22;44112;38.408;-122.974;2022-10-16T15:55:48;18.30;62.40
46882;DHT22;44112;38.408;-122.974;2022-10-16T15:58:16;18.30;62.20
46882;DHT22;44112;38.408;-122.974;2022-10-16T16:00:43;18.30;62.20
46882;DHT22;44112;38.408;-122.974;2022-10-16T16:03:10;18.30;62.30
46882;DHT22;44112;38.408;-122.974;2022-10-16T16:05:40;18.20;62.40
46882;DHT22;44112;38.408;-122.974;2022-10-16T16:08:06;18.20;62.50
46882;DHT22;44112;38.408;-122.974;2022-10-16T16:10:34;18.20;62.70
46882;DHT22;44112;38.408;-122.974;2022-10-16T16:13:00;18.20;62.70
46882;DHT22;44112;38.408;-122.974;2022-10-16T16:15:27;18.20;62.80
46882;DHT22;44112;38.408;-122.974;2022-10-16T16:17:53;18.20;62.80
46882;DHT22;44112;38.408;-122.974;2022-10-16T16:20:20;18.10;62.80
46882;DHT22;44112;38.408;-122.974;2022-10-16T16:22:46;18.20;62.60
46882;DHT22;44112;38.408;-122.974;2022-10-16T16:25:14;18.20;62.50
46882;DHT22;44112;38.408;-122.974;2022-10-16T16:27:41;18.20;62.30
46882;DHT22;44112;38.408;-122.974;2022-10-16T16:30:09;18.30;62.20
46882;DHT22;44112;38.408;-122.974;2022-10-16T16:32:36;18.30;62.10
46882;DHT22;44112;38.408;-122.974;2022-10-16T16:35:03;18.30;62.10
46882;DHT22;44112;38.408;-122.974;2022-10-16T16:37:31;18.20;62.30
46882;DHT22;44112;38.408;-122.974;2022-10-16T16:39:57;18.20;62.40
46882;DHT22;44112;38.408;-122.974;2022-10-16T16:42:28;18.20;62.50
46882;DHT22;44112;38.408;-122.974;2022-10-16T16:44:55;18.20;62.50
46882;DHT22;44112;38.408;-122.974;2022-10-16T16:47:22;18.20;62.50
46882;DHT22;44112;38.408;-122.974;2022-10-16T16:49:49;18.20;62.50
46882;DHT22;44112;38.408;-122.974;2022-10-16T16:52:15;18.10;62.50
46882;DHT22;44112;38.408;-122.974;2022-10-16T16:54:42;18.10;62.50
46882;DHT22;44112;38.408;-122.974;2022-10-16T16:57:10;18.20;62.30
46882;DHT22;44112;38.408;-122.974;2022-10-16T16:59:36;18.20;62.30
46882;DHT22;44112;38.408;-122.974;2022-10-16T17:02:04;18.20;62.10
46882;DHT22;44112;38.408;-122.974;2022-10-16T17:04:30;18.20;62.10
46882;DHT22;44112;38.408;-122.974;2022-10-16T17:06:57;18.20;62.80